Time;durP1;ratioP1;P1;durP2;ratioP2;P2;SDS_P1;SDS_P2;PMS_P1;PMS_P2;Temp;Humidity;BMP_temperature;BMP_pressure;BME280_temperature;BME280_humidity;BME280_pressure;Samples;Min_cycle;Max_cycle;Signal;HPM_P1;HPM_P2
2021/09/30 00:00:39;;;;;;;5.88;1.30;;;10.40;99.90;;;;;;4181676;28;20167;-88
2021/09/30 00:02:41;;;;;;;6.70;1.45;;;10.40;99.90;;;;;;4181506;28;20229;-89
2021/09/30 00:04:41;;;;;;;6.05;1.08;;;10.40;99.90;;;;;;4180980;28;20314;-89
2021/09/30 00:06:42;;;;;;;9.25;1.40;;;10.40;99.90;;;;;;4181156;28;20180;-88
2021/09/30 00:08:43;;;;;;;7.00;1.10;;;10.30;99.90;;;;;;4181112;28;20198;-90
2021/09/30 00:13:17;;;;;;;3.63;1.00;;;10.40;99.90;;;;;;4197131;28;20170;-89
2021/09/30 00:15:31;;;;;;;6.23;1.10;;;10.40;99.90;;;;;;4197707;28;20197;-90
2021/09/30 00:33:39;;;;;;;7.25;1.40;;;10.30;99.90;;;;;;4197085;28;20546;-90
2021/09/30 00:35:53;;;;;;;8.10;1.60;;;10.30;99.90;;;;;;4197267;28;20167;-90
2021/09/30 00:48:51;;;;;;;6.95;1.23;;;10.60;99.90;;;;;;4197087;28;20206;-89
2021/09/30 02:58:39;;;;;;;6.80;1.60;;;9.10;99.90;;;;;;4199087;28;20182;-90
2021/09/30 03:00:43;;;;;;;9.33;2.00;;;9.10;99.90;;;;;;4182559;28;20171;-90
2021/09/30 03:02:48;;;;;;;7.87;1.87;;;9.10;99.90;;;;;;4182513;28;20190;-90
2021/09/30 03:04:51;;;;;;;8.23;1.60;;;9.00;99.90;;;;;;4182561;28;20210;-89
2021/09/30 03:06:54;;;;;;;10.30;2.10;;;9.00;99.90;;;;;;4182146;28;20685;-89
2021/09/30 03:08:59;;;;;;;6.40;2.05;;;9.10;99.90;;;;;;4182197;28;20176;-90
2021/09/30 03:11:01;;;;;;;7.03;1.57;;;9.10;99.90;;;;;;4198578;28;20261;-90
2021/09/30 03:13:03;;;;;;;8.63;2.27;;;9.10;99.90;;;;;;4198619;28;20719;-90
2021/09/30 03:15:46;;;;;;;7.30;1.90;;;9.10;99.90;;;;;;4198723;28;20171;-91
2021/09/30 03:17:51;;;;;;;12.77;2.07;;;9.10;99.90;;;;;;4195822;28;20207;-90
2021/09/30 03:20:03;;;;;;;8.90;2.00;;;9.10;99.90;;;;;;4182362;28;20708;-89
2021/09/30 03:24:16;;;;;;;6.97;1.97;;;9.10;99.90;;;;;;4215124;28;20173;-89
2021/09/30 03:26:17;;;;;;;9.03;1.90;;;9.10;99.90;;;;;;4181978;28;20594;-90
2021/09/30 03:28:22;;;;;;;11.80;1.93;;;9.10;99.90;;;;;;4181861;28;20274;-91
2021/09/30 03:30:27;;;;;;;8.57;1.90;;;9.10;99.90;;;;;;4181974;28;20180;-89
2021/09/30 03:32:30;;;;;;;10.77;1.80;;;9.10;99.90;;;;;;4182369;28;20171;-89
2021/09/30 03:34:41;;;;;;;8.13;2.20;;;9.00;99.90;;;;;;4198380;28;20174;-89
2021/09/30 03:36:44;;;;;;;5.50;2.10;;;9.00;99.90;;;;;;4182064;28;20213;-90
2021/09/30 03:38:45;;;;;;;6.73;2.13;;;9.00;99.90;;;;;;4181897;28;20282;-90
2021/09/30 03:40:47;;;;;;;9.97;2.30;;;8.90;99.90;;;;;;4198155;28;20178;-89
2021/09/30 03:42:48;;;;;;;7.97;2.20;;;8.80;99.90;;;;;;4181701;28;20381;-90
2021/09/30 03:44:49;;;;;;;11.67;2.10;;;8.80;99.90;;;;;;4198219;28;20171;-89
2021/09/30 03:46:53;;;;;;;9.20;2.03;;;8.80;99.90;;;;;;4181657;28;20295;-89
2021/09/30 03:49:13;;;;;;;8.70;2.10;;;8.80;99.90;;;;;;4183453;28;20168;-90
2021/09/30 03:51:20;;;;;;;13.73;2.27;;;8.80;99.90;;;;;;4181572;28;20183;-90
2021/09/30 03:53:37;;;;;;;11.33;2.00;;;8.80;99.90;;;;;;4181629;28;20175;-91
2021/09/30 03:59:06;;;;;;;10.07;2.50;;;8.80;99.90;;;;;;4197753;28;20183;-90
2021/09/30 04:00:10;;;;;;;6.37;1.77;;;8.80;99.90;;;;;;4197769;28;20182;-90
2021/09/30 04:02:18;;;;;;;5.30;1.67;;;8.70;99.90;;;;;;4182460;28;20202;-90
2021/09/30 04:04:19;;;;;;;7.80;2.17;;;8.70;99.90;;;;;;4181614;28;20168;-90
2021/09/30 04:06:21;;;;;;;7.23;2.00;;;8.70;99.90;;;;;;4197965;28;20563;-90
2021/09/30 04:08:21;;;;;;;8.63;1.77;;;8.70;99.90;;;;;;4180981;28;20202;-90
2021/09/30 04:10:22;;;;;;;7.83;1.50;;;8.70;99.90;;;;;;4197991;28;20171;-90
2021/09/30 04:12:23;;;;;;;12.53;2.67;;;8.70;99.90;;;;;;4181137;28;20178;-90
2021/09/30 04:14:27;;;;;;;6.60;2.00;;;8.60;99.90;;;;;;4181400;28;20258;-90
2021/09/30 04:16:29;;;;;;;10.10;2.03;;;8.60;99.90;;;;;;4180980;28;20168;-90
2021/09/30 04:18:31;;;;;;;9.70;1.70;;;8.50;99.90;;;;;;4181286;28;20178;-90
2021/09/30 04:20:33;;;;;;;8.37;1.83;;;8.50;99.90;;;;;;4197930;28;20249;-90
2021/09/30 04:22:40;;;;;;;12.10;1.77;;;8.50;99.90;;;;;;4181735;28;20175;-89
2021/09/30 04:24:44;;;;;;;7.87;1.93;;;8.50;99.90;;;;;;4180982;28;20188;-90
2021/09/30 04:26:46;;;;;;;7.97;1.87;;;8.50;99.90;;;;;;4180884;28;20171;-90
2021/09/30 04:28:47;;;;;;;11.50;2.10;;;8.60;99.90;;;;;;4181199;28;20175;-90
2021/09/30 04:30:48;;;;;;;6.23;1.80;;;8.60;99.90;;;;;;4181063;28;20274;-90
2021/09/30 04:32:56;;;;;;;10.00;2.10;;;8.60;99.90;;;;;;4197470;28;20673;-89
2021/09/30 04:34:57;;;;;;;6.63;2.00;;;8.60;99.90;;;;;;4180839;28;20180;-89
2021/09/30 04:36:58;;;;;;;11.23;2.00;;;8.60;99.90;;;;;;4197537;28;20194;-90
2021/09/30 04:38:59;;;;;;;11.50;2.10;;;8.70;99.90;;;;;;4181140;28;20912;-90
2021/09/30 04:41:00;;;;;;;8.70;2.57;;;8.70;99.90;;;;;;4180944;28;20176;-90
2021/09/30 04:43:01;;;;;;;9.43;1.90;;;8.60;99.90;;;;;;4180907;28;20171;-90
2021/09/30 04:45:03;;;;;;;8.20;1.97;;;8.60;99.90;;;;;;4197238;28;20209;-89
2021/09/30 04:47:04;;;;;;;10.97;1.57;;;8.60;99.90;;;;;;4197434;28;20191;-89
2021/09/30 04:49:20;;;;;;;8.07;1.70;;;8.60;99.90;;;;;;4182660;28;20221;-89
2021/09/30 04:51:21;;;;;;;6.90;1.60;;;8.60;99.90;;;;;;4180586;28;20183;-89
2021/09/30 04:53:22;;;;;;;8.53;1.60;;;8.60;99.90;;;;;;4180710;28;20176;-89
2021/09/30 04:55:22;;;;;;;10.10;1.60;;;8.70;99.90;;;;;;4180894;28;20171;-89
2021/09/30 04:57:23;;;;;;;11.90;1.63;;;8.60;99.90;;;;;;4180395;28;20651;-89
2021/09/30 04:59:24;;;;;;;8.17;1.70;;;8.60;99.90;;;;;;4180642;28;20251;-89
2021/09/30 05:01:45;;;;;;;11.97;2.13;;;8.60;99.90;;;;;;4197498;28;20558;-89
2021/09/30 05:03:50;;;;;;;12.43;1.70;;;8.70;99.90;;;;;;4180962;28;20254;-90
2021/09/30 05:05:51;;;;;;;8.43;1.77;;;8.70;99.90;;;;;;4180695;28;20203;-89
2021/09/30 05:07:52;;;;;;;8.40;2.10;;;8.70;99.90;;;;;;4180599;28;20219;-90
2021/09/30 05:09:54;;;;;;;14.60;1.83;;;8.60;99.90;;;;;;4180552;28;20167;-89
2021/09/30 05:11:57;;;;;;;6.97;1.80;;;8.60;99.90;;;;;;4180283;28;20571;-89
2021/09/30 05:13:59;;;;;;;6.97;1.50;;;8.60;99.90;;;;;;4196858;28;20167;-89
2021/09/30 05:16:00;;;;;;;7.80;1.87;;;8.70;99.90;;;;;;4180528;28;20171;-89
2021/09/30 05:18:45;;;;;;;5.97;1.57;;;8.70;99.90;;;;;;4197049;28;20529;-89
2021/09/30 05:20:45;;;;;;;7.57;1.90;;;8.70;99.90;;;;;;4180314;28;20171;-88
2021/09/30 05:22:47;;;;;;;10.83;1.70;;;8.70;99.90;;;;;;4180282;28;20180;-89
2021/09/30 05:24:47;;;;;;;4.63;1.40;;;8.60;99.90;;;;;;4196747;28;20177;-88
2021/09/30 05:26:48;;;;;;;8.83;1.67;;;8.70;99.90;;;;;;4196639;28;20195;-88
2021/09/30 05:28:49;;;;;;;11.53;1.50;;;8.70;99.90;;;;;;4180219;28;20284;-89
2021/09/30 05:30:51;;;;;;;6.73;1.63;;;8.70;99.90;;;;;;4180154;28;20179;-92
2021/09/30 05:33:11;;;;;;;7.90;1.47;;;8.50;99.90;;;;;;4182415;28;20669;-92
2021/09/30 05:35:12;;;;;;;8.80;1.60;;;8.40;99.90;;;;;;4180074;28;20167;-89
2021/09/30 05:37:22;;;;;;;8.90;1.77;;;8.40;99.90;;;;;;4196619;28;20294;-93
2021/09/30 05:39:23;;;;;;;7.73;1.43;;;8.40;99.90;;;;;;4180101;28;20171;-92
2021/09/30 05:41:25;;;;;;;11.30;1.60;;;8.40;99.90;;;;;;4196586;28;20228;-91
2021/09/30 05:43:30;;;;;;;18.33;2.63;;;8.50;99.90;;;;;;4180132;28;20693;-92
2021/09/30 05:45:32;;;;;;;8.33;1.57;;;8.40;99.90;;;;;;4196456;28;20245;-92
2021/09/30 05:47:35;;;;;;;17.50;2.10;;;8.50;99.90;;;;;;4180299;28;20662;-92
2021/09/30 05:49:36;;;;;;;10.40;1.90;;;8.60;99.90;;;;;;4180063;28;20171;-92
2021/09/30 05:51:55;;;;;;;9.03;2.37;;;8.60;99.90;;;;;;4196930;28;20673;-91
2021/09/30 05:54:18;;;;;;;7.97;1.73;;;8.70;99.90;;;;;;4182846;28;20167;-91
2021/09/30 05:56:29;;;;;;;12.20;2.10;;;8.70;99.90;;;;;;4196411;28;20178;-91
2021/09/30 05:58:29;;;;;;;14.00;2.80;;;8.70;99.90;;;;;;4179887;28;20240;-91
2021/09/30 06:00:37;;;;;;;13.10;2.30;;;8.70;99.90;;;;;;4180460;28;20160;-92
2021/09/30 06:13:45;;;;;;;9.90;1.97;;;8.60;99.90;;;;;;4199618;28;20572;-93
2021/09/30 06:15:46;;;;;;;11.30;1.70;;;8.70;99.90;;;;;;4183260;28;20175;-92
2021/09/30 06:17:49;;;;;;;6.73;1.63;;;8.70;99.90;;;;;;4183157;28;20286;-92
2021/09/30 06:19:53;;;;;;;4.23;1.47;;;8.80;99.90;;;;;;4183217;28;20178;-92
2021/09/30 06:21:54;;;;;;;7.03;1.70;;;8.90;99.90;;;;;;4199446;28;20167;-92
2021/09/30 06:23:55;;;;;;;7.27;1.83;;;9.00;99.90;;;;;;4182861;28;20631;-93
2021/09/30 06:25:57;;;;;;;8.47;2.23;;;9.00;99.90;;;;;;4182733;28;20207;-92
2021/09/30 06:27:58;;;;;;;9.57;1.80;;;8.90;99.90;;;;;;4182847;28;20192;-91
2021/09/30 06:29:59;;;;;;;8.20;1.67;;;8.90;99.90;;;;;;4182875;28;20653;-93
2021/09/30 06:32:01;;;;;;;11.23;1.40;;;8.80;99.90;;;;;;4183104;28;20174;-92
2021/09/30 06:34:05;;;;;;;7.73;1.40;;;8.80;99.90;;;;;;4199634;28;20171;-93
2021/09/30 06:36:29;;;;;;;7.80;1.47;;;8.80;99.90;;;;;;4191002;28;20273;-93
2021/09/30 06:38:30;;;;;;;6.23;1.30;;;8.90;99.90;;;;;;4181935;28;20262;-93
2021/09/30 06:40:31;;;;;;;7.00;1.40;;;8.90;99.90;;;;;;4182416;28;20167;-93
2021/09/30 06:42:32;;;;;;;7.83;1.77;;;8.90;99.90;;;;;;4182881;28;20164;-92
2021/09/30 06:44:49;;;;;;;10.80;1.83;;;8.90;99.90;;;;;;4198323;28;20202;-93
2021/09/30 06:47:01;;;;;;;8.77;1.30;;;8.90;99.90;;;;;;4200374;28;20190;-93
2021/09/30 06:49:07;;;;;;;9.00;1.40;;;9.00;99.90;;;;;;4184198;28;20175;-91
2021/09/30 06:51:27;;;;;;;3.07;1.10;;;9.20;99.90;;;;;;4200579;28;20170;-91
2021/09/30 06:53:28;;;;;;;11.90;1.57;;;9.20;99.90;;;;;;4183337;28;20214;-91
2021/09/30 06:55:45;;;;;;;8.43;1.73;;;9.20;99.90;;;;;;4200648;28;20159;-93
2021/09/30 06:58:07;;;;;;;10.43;1.70;;;9.40;99.90;;;;;;4169021;28;20224;-94
2021/09/30 07:00:27;;;;;;;8.53;1.50;;;9.50;99.90;;;;;;4199510;28;20178;-93
2021/09/30 07:02:47;;;;;;;9.73;1.50;;;9.60;99.90;;;;;;4199745;28;20185;-92
2021/09/30 07:05:14;;;;;;;8.37;1.60;;;9.60;99.90;;;;;;4155943;28;20211;-93
2021/09/30 07:07:40;;;;;;;9.60;1.70;;;9.70;99.90;;;;;;4199431;28;20627;-92
2021/09/30 07:09:41;;;;;;;5.80;1.40;;;9.80;99.90;;;;;;4182809;28;20551;-94
2021/09/30 07:11:42;;;;;;;8.20;1.53;;;10.10;99.90;;;;;;4199367;28;20192;-92
2021/09/30 07:13:43;;;;;;;5.13;1.80;;;10.30;99.90;;;;;;4185428;28;20262;-92
2021/09/30 07:15:44;;;;;;;8.13;1.38;;;10.60;99.90;;;;;;4167773;28;20180;-94
2021/09/30 07:17:45;;;;;;;8.45;1.65;;;10.80;99.90;;;;;;4166336;28;20231;-93
2021/09/30 07:19:46;;;;;;;10.63;1.48;;;11.00;99.90;;;;;;4166617;28;20247;-92
2021/09/30 07:21:47;;;;;;;6.35;1.60;;;11.20;99.90;;;;;;4165930;28;20168;-92
2021/09/30 07:23:47;;;;;;;9.95;1.40;;;11.40;99.90;;;;;;4182674;28;20217;-94
2021/09/30 07:25:48;;;;;;;8.82;1.50;;;11.60;99.90;;;;;;4182608;28;20199;-93
2021/09/30 07:27:49;;;;;;;10.73;1.60;;;11.80;99.90;;;;;;4166132;28;20279;-92
2021/09/30 07:29:51;;;;;;;9.68;1.40;;;12.10;99.90;;;;;;4182447;28;20176;-93
2021/09/30 07:31:52;;;;;;;10.18;1.50;;;12.40;99.90;;;;;;4166376;28;20172;-93
2021/09/30 07:33:53;;;;;;;6.63;1.35;;;12.60;99.90;;;;;;4198782;28;20222;-93
2021/09/30 07:35:53;;;;;;;8.88;1.30;;;12.80;99.90;;;;;;4182329;28;20175;-92
2021/09/30 07:37:55;;;;;;;8.68;1.63;;;12.80;99.90;;;;;;4181699;28;20175;-92
2021/09/30 07:39:56;;;;;;;10.00;2.05;;;12.50;99.90;;;;;;4181526;28;20634;-92
2021/09/30 07:41:58;;;;;;;8.55;1.40;;;12.50;99.90;;;;;;4198073;28;20162;-92
2021/09/30 07:43:58;;;;;;;7.60;1.88;;;12.30;99.90;;;;;;4181292;28;20214;-93
2021/09/30 07:45:59;;;;;;;7.68;1.50;;;12.20;99.90;;;;;;4181122;28;20212;-93
2021/09/30 07:48:00;;;;;;;7.47;1.40;;;12.20;99.90;;;;;;4180829;28;20191;-92
2021/09/30 07:50:03;;;;;;;6.68;1.52;;;11.90;99.90;;;;;;4181243;28;20171;-93
2021/09/30 07:52:05;;;;;;;4.50;1.27;;;12.10;99.90;;;;;;4181431;28;20301;-93
2021/09/30 07:54:06;;;;;;;7.80;1.15;;;12.40;99.90;;;;;;4195308;28;20671;-94
2021/09/30 07:56:08;;;;;;;7.45;1.25;;;12.50;99.90;;;;;;4181252;28;20171;-93
2021/09/30 07:58:09;;;;;;;6.32;1.42;;;12.90;99.90;;;;;;4197531;28;20206;-93
2021/09/30 08:00:11;;;;;;;7.78;1.50;;;13.20;99.90;;;;;;4181763;28;20187;-93
2021/09/30 08:02:14;;;;;;;8.10;1.75;;;13.30;99.90;;;;;;4182350;28;20160;-94
2021/09/30 08:04:15;;;;;;;8.45;1.65;;;13.60;99.90;;;;;;4197733;22;20250;-89
2021/09/30 08:06:16;;;;;;;6.40;1.30;;;13.80;99.90;;;;;;4182030;28;20698;-90
2021/09/30 08:08:17;;;;;;;7.28;1.40;;;13.70;99.90;;;;;;4182615;28;20293;-91
2021/09/30 08:10:18;;;;;;;9.38;1.90;;;13.70;99.90;;;;;;4182312;28;20901;-90
2021/09/30 08:12:20;;;;;;;7.40;1.58;;;14.20;99.90;;;;;;4182509;28;20235;-89
2021/09/30 08:14:20;;;;;;;9.07;1.10;;;14.40;99.90;;;;;;4182401;28;20636;-90
2021/09/30 08:16:23;;;;;;;6.55;1.40;;;14.30;99.90;;;;;;4182293;28;20229;-89
2021/09/30 08:18:24;;;;;;;5.43;1.20;;;14.40;99.90;;;;;;4181991;28;20195;-89
2021/09/30 08:20:25;;;;;;;7.43;1.50;;;14.70;99.90;;;;;;4182069;28;20167;-91
2021/09/30 08:22:26;;;;;;;10.38;1.48;;;15.20;99.90;;;;;;4182345;28;20254;-90
2021/09/30 08:24:27;;;;;;;7.85;1.60;;;15.50;99.90;;;;;;4182110;28;20179;-89
2021/09/30 08:26:28;;;;;;;15.65;2.63;;;15.90;99.90;;;;;;4181848;28;20211;-92
2021/09/30 08:28:29;;;;;;;5.97;1.10;;;16.00;99.90;;;;;;4181958;28;20184;-91
2021/09/30 08:30:30;;;;;;;8.45;1.48;;;16.20;99.90;;;;;;4182162;28;20186;-93
2021/09/30 08:32:31;;;;;;;11.52;1.65;;;16.20;99.90;;;;;;4181538;28;20178;-89
2021/09/30 08:34:32;;;;;;;8.57;1.50;;;16.20;99.90;;;;;;4182084;28;20540;-90
2021/09/30 08:36:33;;;;;;;4.18;1.33;;;16.00;99.90;;;;;;4182003;28;20182;-89
2021/09/30 08:38:33;;;;;;;6.72;1.52;;;15.80;99.90;;;;;;4181869;28;20166;-90
2021/09/30 08:40:34;;;;;;;8.32;1.50;;;15.30;99.90;;;;;;4181718;28;20211;-92
2021/09/30 08:42:36;;;;;;;8.23;1.60;;;15.00;99.90;;;;;;4181897;28;20651;-89
2021/09/30 08:44:38;;;;;;;8.13;1.38;;;14.60;99.90;;;;;;4181931;28;20183;-88
2021/09/30 08:46:39;;;;;;;6.25;1.70;;;14.40;99.90;;;;;;4181752;28;20269;-90
2021/09/30 08:48:40;;;;;;;12.20;1.83;;;14.60;99.90;;;;;;4181726;28;20714;-93
2021/09/30 08:50:41;;;;;;;11.32;1.50;;;14.70;99.90;;;;;;4181783;28;20195;-91
2021/09/30 08:52:42;;;;;;;10.40;1.63;;;14.80;99.90;;;;;;4181606;28;20255;-89
2021/09/30 08:54:42;;;;;;;9.75;2.00;;;14.60;99.90;;;;;;4198320;28;20170;-91
2021/09/30 08:56:43;;;;;;;5.90;1.17;;;14.30;99.90;;;;;;4198293;28;20248;-89
2021/09/30 08:58:44;;;;;;;8.38;1.38;;;14.10;99.90;;;;;;4181751;28;20159;-89
2021/09/30 09:00:45;;;;;;;5.45;1.30;;;14.40;99.90;;;;;;4198492;28;20174;-90
2021/09/30 09:02:52;;;;;;;8.35;1.60;;;14.50;99.90;;;;;;4181903;28;20168;-92
2021/09/30 09:04:55;;;;;;;7.93;1.48;;;14.70;99.90;;;;;;4181685;28;20281;-91
2021/09/30 09:07:04;;;;;;;8.70;1.35;;;14.90;99.90;;;;;;4181406;28;20540;-93
2021/09/30 09:09:27;;;;;;;4.90;1.23;;;15.20;99.90;;;;;;4181522;28;20175;-91
2021/09/30 09:11:29;;;;;;;7.50;1.63;;;15.20;99.90;;;;;;4181402;28;20171;-90
2021/09/30 09:13:30;;;;;;;7.70;1.33;;;15.20;99.90;;;;;;4181475;28;20226;-91
2021/09/30 09:16:01;;;;;;;14.70;1.35;;;15.30;99.90;;;;;;4181408;28;20168;-92
2021/09/30 09:18:14;;;;;;;3.22;1.30;;;15.60;99.90;;;;;;4196291;28;20207;-90
2021/09/30 09:20:14;;;;;;;5.85;1.42;;;15.20;99.90;;;;;;4181452;28;20171;-90
2021/09/30 09:22:22;;;;;;;14.98;1.77;;;14.80;99.90;;;;;;4180692;28;20179;-90
2021/09/30 09:24:23;;;;;;;9.05;1.48;;;14.90;99.90;;;;;;4177175;28;20173;-90
2021/09/30 09:26:34;;;;;;;9.65;1.90;;;14.80;99.90;;;;;;4178341;28;20230;-90
2021/09/30 09:28:38;;;;;;;37.88;4.70;;;14.70;99.90;;;;;;4180741;28;20164;-91
2021/09/30 09:30:51;;;;;;;9.20;1.40;;;14.80;99.90;;;;;;4180818;28;20171;-90
2021/09/30 09:33:11;;;;;;;10.27;1.63;;;14.80;99.90;;;;;;4179479;28;20173;-90
2021/09/30 09:35:13;;;;;;;19.52;3.30;;;14.60;99.90;;;;;;4173716;28;20222;-90
2021/09/30 09:37:38;;;;;;;7.20;1.20;;;14.40;99.90;;;;;;4179625;28;20659;-89
2021/09/30 09:39:39;;;;;;;5.07;1.25;;;14.50;99.90;;;;;;4177642;28;20179;-91
2021/09/30 09:41:39;;;;;;;6.55;1.30;;;14.50;99.90;;;;;;4197424;28;20159;-90
2021/09/30 09:43:44;;;;;;;6.75;1.30;;;14.60;99.90;;;;;;4181582;28;20675;-89
2021/09/30 09:45:47;;;;;;;8.60;1.45;;;14.50;99.90;;;;;;4184558;28;20201;-90
2021/09/30 09:47:47;;;;;;;7.35;1.40;;;14.50;99.90;;;;;;4201073;28;20199;-91
2021/09/30 09:50:11;;;;;;;7.82;1.50;;;14.50;99.90;;;;;;4184518;28;20623;-91
2021/09/30 09:52:12;;;;;;;10.20;1.83;;;14.50;99.90;;;;;;4184613;28;20186;-90
2021/09/30 09:54:18;;;;;;;9.00;1.70;;;14.60;99.90;;;;;;4184576;28;20156;-91
2021/09/30 09:56:20;;;;;;;10.02;2.25;;;14.50;99.90;;;;;;4184483;28;20175;-90
2021/09/30 09:58:21;;;;;;;10.20;2.05;;;14.40;99.90;;;;;;4184293;28;20187;-89
2021/09/30 10:00:22;;;;;;;10.30;1.73;;;14.50;99.90;;;;;;4200982;28;20185;-90
2021/09/30 10:02:30;;;;;;;12.50;1.73;;;14.30;99.90;;;;;;4184308;28;20159;-90
2021/09/30 10:04:35;;;;;;;12.20;1.50;;;14.30;99.90;;;;;;4184302;28;20216;-92
2021/09/30 10:06:37;;;;;;;6.82;1.40;;;14.50;99.90;;;;;;4200379;28;20258;-90
2021/09/30 10:08:39;;;;;;;5.90;1.75;;;14.70;99.90;;;;;;4183355;28;20586;-89
2021/09/30 10:10:41;;;;;;;8.35;1.35;;;14.80;99.90;;;;;;4177063;28;20232;-90
2021/09/30 10:12:43;;;;;;;11.57;2.13;;;14.80;99.90;;;;;;4180533;28;20179;-90
2021/09/30 10:14:44;;;;;;;19.70;3.05;;;14.80;99.90;;;;;;4183322;28;20219;-90
2021/09/30 10:16:47;;;;;;;15.77;1.85;;;14.70;99.90;;;;;;4199542;28;20174;-89
2021/09/30 10:18:48;;;;;;;11.35;1.73;;;15.10;99.90;;;;;;4182771;28;20160;-90
2021/09/30 10:20:49;;;;;;;12.30;2.40;;;15.40;99.90;;;;;;4182927;28;20187;-89
2021/09/30 10:22:52;;;;;;;8.80;1.50;;;15.40;99.90;;;;;;4183264;28;20156;-89
2021/09/30 10:24:55;;;;;;;8.95;1.27;;;15.60;99.90;;;;;;4183365;28;20175;-88
2021/09/30 10:26:58;;;;;;;7.80;1.67;;;15.90;99.90;;;;;;4183168;28;20203;-90
2021/09/30 10:28:59;;;;;;;7.95;1.63;;;15.90;99.90;;;;;;4183129;28;20172;-90
2021/09/30 10:31:00;;;;;;;7.20;1.63;;;15.50;99.90;;;;;;4183121;28;20171;-89
2021/09/30 10:33:05;;;;;;;9.65;1.77;;;15.30;99.90;;;;;;4199291;28;20202;-89
2021/09/30 10:35:07;;;;;;;7.72;1.63;;;15.20;99.90;;;;;;4182891;28;20182;-89
2021/09/30 10:37:22;;;;;;;11.63;1.55;;;15.30;99.90;;;;;;4182926;28;20288;-89
2021/09/30 10:39:26;;;;;;;6.57;1.30;;;15.40;99.90;;;;;;4182907;28;20171;-90
2021/09/30 10:41:36;;;;;;;10.55;1.75;;;15.10;99.90;;;;;;4182866;28;20176;-90
2021/09/30 10:43:44;;;;;;;8.23;1.60;;;15.20;99.90;;;;;;4199527;28;20673;-90
2021/09/30 10:45:45;;;;;;;7.57;1.65;;;15.00;99.90;;;;;;4182499;28;20250;-89
2021/09/30 10:47:46;;;;;;;10.73;1.58;;;14.90;99.90;;;;;;4182818;28;20225;-89
2021/09/30 10:49:55;;;;;;;7.70;1.48;;;14.90;99.90;;;;;;4182932;28;20171;-90
2021/09/30 10:52:18;;;;;;;13.73;1.65;;;15.10;99.90;;;;;;4199644;28;20175;-88
2021/09/30 10:54:18;;;;;;;11.73;1.88;;;15.20;99.90;;;;;;4182734;28;20179;-90
2021/09/30 10:56:31;;;;;;;7.55;1.35;;;15.10;99.90;;;;;;4181973;28;20194;-89
2021/09/30 10:58:31;;;;;;;14.82;1.60;;;15.00;99.90;;;;;;4182472;28;20543;-89
2021/09/30 11:00:35;;;;;;;13.15;1.70;;;14.90;99.90;;;;;;4199096;28;20170;-89
2021/09/30 11:03:09;;;;;;;7.03;1.80;;;14.90;99.90;;;;;;4182693;28;20233;-89
2021/09/30 11:05:13;;;;;;;10.52;1.90;;;14.90;99.90;;;;;;4199164;28;20534;-89
2021/09/30 11:07:15;;;;;;;8.98;1.70;;;14.60;99.90;;;;;;4199140;28;20678;-90
2021/09/30 11:09:22;;;;;;;8.32;1.50;;;14.40;99.90;;;;;;4182146;28;20241;-89
2021/09/30 11:11:25;;;;;;;7.07;1.80;;;14.40;99.90;;;;;;4182137;28;20615;-89
2021/09/30 11:13:29;;;;;;;10.30;2.17;;;14.40;99.90;;;;;;4182458;28;20325;-89
2021/09/30 11:16:03;;;;;;;10.68;1.50;;;14.60;99.90;;;;;;4182406;28;20202;-89
2021/09/30 11:18:39;;;;;;;8.55;1.58;;;14.60;99.90;;;;;;4150385;28;20250;-90
2021/09/30 11:20:40;;;;;;;14.48;1.92;;;14.80;99.90;;;;;;4182138;28;20178;-89
2021/09/30 11:22:42;;;;;;;23.00;2.08;;;14.90;99.90;;;;;;4199065;28;20550;-90
2021/09/30 11:24:54;;;;;;;8.23;1.50;;;15.20;99.90;;;;;;4182373;28;20172;-89
2021/09/30 11:26:54;;;;;;;11.18;1.30;;;15.30;99.90;;;;;;4182123;28;20281;-91
2021/09/30 11:29:21;;;;;;;8.77;1.40;;;15.30;99.90;;;;;;4182139;28;20179;-91
2021/09/30 11:31:33;;;;;;;12.07;1.55;;;15.60;99.90;;;;;;4182322;28;20262;-89
2021/09/30 11:33:34;;;;;;;10.80;1.20;;;15.80;99.90;;;;;;4181959;28;20302;-89
2021/09/30 11:35:36;;;;;;;7.60;1.20;;;15.80;99.90;;;;;;4182295;28;20227;-89
2021/09/30 11:37:43;;;;;;;10.48;1.42;;;15.80;99.90;;;;;;4182247;28;20203;-90
2021/09/30 11:39:53;;;;;;;10.50;1.30;;;15.50;99.90;;;;;;4182450;28;20198;-90
2021/09/30 11:41:54;;;;;;;7.35;1.23;;;15.60;99.90;;;;;;4182096;28;20675;-90
2021/09/30 11:43:56;;;;;;;8.15;1.23;;;15.50;99.90;;;;;;4198646;28;20167;-89
2021/09/30 11:45:56;;;;;;;11.13;1.58;;;15.50;99.90;;;;;;4182074;28;20222;-89
2021/09/30 11:48:04;;;;;;;12.07;1.45;;;15.40;99.90;;;;;;4181798;28;20222;-89
2021/09/30 11:50:07;;;;;;;13.52;1.58;;;15.40;99.90;;;;;;4181873;28;20558;-90
2021/09/30 11:52:12;;;;;;;5.55;1.00;;;15.50;99.90;;;;;;4181879;28;20309;-89
2021/09/30 11:54:20;;;;;;;7.85;1.40;;;15.70;99.90;;;;;;4181738;28;20186;-90
2021/09/30 11:56:21;;;;;;;8.52;1.63;;;15.70;99.90;;;;;;4181542;28;20261;-89
2021/09/30 11:58:21;;;;;;;7.13;1.50;;;15.80;99.90;;;;;;4181655;28;20222;-90
2021/09/30 12:00:22;;;;;;;5.50;1.25;;;15.80;99.90;;;;;;4181560;28;20535;-90
2021/09/30 12:02:27;;;;;;;11.52;1.30;;;16.00;99.90;;;;;;4182603;28;20179;-90
2021/09/30 12:04:47;;;;;;;7.85;1.20;;;16.10;99.90;;;;;;4183448;28;20206;-90
2021/09/30 12:06:48;;;;;;;4.70;1.17;;;16.30;99.90;;;;;;4182161;28;20296;-89
2021/09/30 12:08:59;;;;;;;7.18;1.08;;;16.40;99.90;;;;;;4181422;28;20175;-89
2021/09/30 12:11:04;;;;;;;9.55;1.48;;;16.60;99.90;;;;;;4182211;28;20630;-89
2021/09/30 12:13:18;;;;;;;10.95;1.77;;;16.60;99.90;;;;;;4182410;28;20685;-90
2021/09/30 12:15:19;;;;;;;7.25;1.20;;;16.80;99.90;;;;;;4182717;28;20178;-90
2021/09/30 12:17:20;;;;;;;8.27;1.33;;;16.70;99.90;;;;;;4182207;28;20199;-91
2021/09/30 12:19:40;;;;;;;9.80;1.52;;;16.70;99.90;;;;;;4182163;28;20689;-90
2021/09/30 12:21:41;;;;;;;8.73;1.45;;;16.50;99.90;;;;;;4198742;28;20213;-90
2021/09/30 12:23:42;;;;;;;15.13;1.60;;;16.40;99.90;;;;;;4182359;28;20175;-89
2021/09/30 12:25:43;;;;;;;11.25;1.45;;;16.50;99.90;;;;;;4182215;28;20558;-92
2021/09/30 12:27:47;;;;;;;7.65;1.42;;;16.50;99.90;;;;;;4198748;28;20194;-92
2021/09/30 12:29:50;;;;;;;11.65;1.67;;;16.60;99.90;;;;;;4182028;28;20573;-94
2021/09/30 12:32:09;;;;;;;7.75;1.48;;;16.90;99.90;;;;;;4182151;28;20174;-91
2021/09/30 12:34:25;;;;;;;11.27;1.60;;;16.90;99.90;;;;;;4181862;28;20232;-92
2021/09/30 12:36:26;;;;;;;6.82;1.33;;;16.70;99.90;;;;;;4182043;28;20266;-91
2021/09/30 12:38:27;;;;;;;12.52;1.58;;;16.50;99.90;;;;;;4181920;28;20218;-92
2021/09/30 12:40:36;;;;;;;10.40;1.60;;;16.60;99.90;;;;;;4182153;28;20171;-92
2021/09/30 12:42:38;;;;;;;7.32;1.20;;;16.60;99.90;;;;;;4181795;28;20237;-94
2021/09/30 12:44:43;;;;;;;12.70;1.48;;;16.40;99.90;;;;;;4198364;28;20177;-92
2021/09/30 12:46:46;;;;;;;9.13;1.23;;;16.60;99.90;;;;;;4181722;28;20207;-92
2021/09/30 12:48:49;;;;;;;5.85;1.10;;;16.60;99.90;;;;;;4181487;28;20172;-91
2021/09/30 12:50:58;;;;;;;9.30;1.38;;;16.30;99.90;;;;;;4180829;28;20544;-92
2021/09/30 12:53:03;;;;;;;19.15;1.83;;;16.50;99.90;;;;;;4181581;28;20172;-89
2021/09/30 12:55:25;;;;;;;11.50;1.75;;;16.60;99.90;;;;;;4181428;28;20642;-92
2021/09/30 12:57:34;;;;;;;10.60;1.38;;;16.50;99.90;;;;;;4181438;28;20209;-92
2021/09/30 12:59:35;;;;;;;9.57;1.20;;;16.60;99.90;;;;;;4197940;28;20178;-93
2021/09/30 13:01:36;;;;;;;6.22;1.40;;;16.50;99.90;;;;;;4181430;28;20172;-89
2021/09/30 13:03:37;;;;;;;10.63;1.15;;;16.60;99.90;;;;;;4181224;28;20163;-91
2021/09/30 13:05:50;;;;;;;7.70;1.10;;;16.90;99.90;;;;;;4197864;28;20213;-90
2021/09/30 13:07:56;;;;;;;7.20;1.20;;;17.10;99.90;;;;;;4181368;28;20195;-90
2021/09/30 13:10:04;;;;;;;9.98;1.65;;;17.30;99.90;;;;;;4181494;28;20655;-91
2021/09/30 13:12:25;;;;;;;9.77;1.52;;;17.20;99.90;;;;;;4181363;28;20175;-89
2021/09/30 13:14:35;;;;;;;8.85;1.40;;;17.30;99.90;;;;;;4185804;28;20171;-91
2021/09/30 13:16:36;;;;;;;6.85;1.15;;;17.10;99.90;;;;;;4187858;28;20175;-91
2021/09/30 13:18:48;;;;;;;11.77;1.30;;;17.30;99.90;;;;;;4201965;28;20266;-90
2021/09/30 13:21:07;;;;;;;7.10;1.00;;;17.30;99.90;;;;;;4206266;28;20174;-92
2021/09/30 13:23:10;;;;;;;8.18;1.35;;;17.20;99.90;;;;;;4180985;28;20183;-91
2021/09/30 13:25:17;;;;;;;6.45;1.23;;;17.20;99.90;;;;;;4181095;28;20195;-92
2021/09/30 13:27:24;;;;;;;6.30;1.20;;;17.20;99.90;;;;;;4181486;28;20278;-93
2021/09/30 13:29:25;;;;;;;10.00;1.30;;;17.00;99.90;;;;;;4181306;28;20193;-93
2021/09/30 13:31:26;;;;;;;10.52;1.73;;;16.90;99.90;;;;;;4181553;28;20191;-91
2021/09/30 13:33:27;;;;;;;9.93;1.45;;;16.80;99.90;;;;;;4181383;28;20540;-89
2021/09/30 13:35:31;;;;;;;8.63;1.50;;;16.80;99.90;;;;;;4181261;28;20204;-90
2021/09/30 13:37:32;;;;;;;9.05;1.35;;;17.10;99.90;;;;;;4197644;28;20714;-91
2021/09/30 13:39:33;;;;;;;8.05;1.63;;;17.40;99.90;;;;;;4199471;28;20167;-93
2021/09/30 13:41:34;;;;;;;7.60;1.15;;;17.40;99.90;;;;;;4199000;28;20265;-89
2021/09/30 13:43:35;;;;;;;7.15;1.20;;;17.10;99.90;;;;;;4183745;28;20178;-89
2021/09/30 13:45:35;;;;;;;7.07;1.05;;;16.70;99.90;;;;;;4199443;28;20206;-89